createdAt,value
2019-01-20T00:02:14.267Z,69.12
2019-01-20T00:04:44.360Z,69.77
2019-01-20T00:07:14.462Z,70.27
2019-01-20T00:09:46.233Z,70.84
2019-01-20T00:12:16.442Z,71.08
2019-01-20T00:14:46.607Z,71.22
2019-01-20T00:17:18.822Z,71.23
2019-01-20T00:19:48.949Z,71.06
2019-01-20T00:22:19.208Z,71.28
2019-01-20T00:24:49.368Z,71.27
2019-01-20T00:27:19.529Z,71.84
2019-01-20T00:29:49.842Z,72.01
2019-01-20T00:32:19.955Z,72.13
2019-01-20T00:34:50.064Z,71.90
2019-01-20T00:37:20.269Z,71.63
2019-01-20T00:39:50.384Z,71.86
2019-01-20T00:42:20.492Z,71.93
2019-01-20T00:44:50.604Z,71.37
2019-01-20T00:47:20.831Z,70.72
2019-01-20T00:49:51.011Z,70.71
2019-01-20T00:52:21.111Z,69.66
2019-01-20T00:54:51.202Z,69.80
2019-01-20T00:57:21.308Z,69.67
2019-01-20T00:59:51.422Z,69.66
2019-01-20T01:02:21.546Z,70.30
2019-01-20T01:04:51.661Z,70.44
2019-01-20T01:07:21.767Z,70.96
2019-01-20T01:09:51.910Z,71.08
2019-01-20T01:12:22.020Z,71.18
2019-01-20T01:14:52.142Z,70.79
2019-01-20T01:17:22.254Z,70.76
2019-01-20T01:19:52.526Z,70.75
2019-01-20T01:22:22.618Z,70.08
2019-01-20T01:24:52.735Z,71.28
2019-01-20T01:27:23.918Z,70.86
2019-01-20T01:29:54.046Z,69.98
2019-01-20T01:32:24.165Z,69.42
2019-01-20T01:34:55.778Z,69.78
2019-01-20T01:37:25.866Z,69.80
2019-01-20T01:39:55.974Z,68.13
2019-01-20T01:42:26.122Z,67.79
2019-01-20T01:44:56.239Z,67.66
2019-01-20T01:47:26.666Z,66.97
2019-01-20T01:49:56.806Z,67.34
2019-01-20T01:52:27.319Z,67.56
2019-01-20T01:54:57.439Z,67.88
2019-01-20T01:57:27.544Z,67.09
2019-01-20T01:59:57.641Z,67.71
2019-01-20T02:02:28.021Z,67.83
2019-01-20T02:04:58.130Z,66.65
2019-01-20T02:07:28.283Z,66.86
2019-01-20T02:09:58.712Z,67.68
2019-01-20T02:12:28.820Z,67.35
2019-01-20T02:14:58.930Z,66.26
2019-01-20T02:17:29.075Z,66.46
2019-01-20T02:19:59.195Z,67.07
2019-01-20T02:22:29.284Z,67.59
2019-01-20T02:24:59.427Z,67.09
2019-01-20T02:27:29.537Z,66.90
2019-01-20T02:29:59.644Z,66.43
2019-01-20T02:32:29.971Z,66.20
2019-01-20T02:35:00.178Z,66.76
2019-01-20T02:37:30.284Z,67.28
2019-01-20T02:40:00.411Z,67.94
2019-01-20T02:42:31.974Z,68.91
2019-01-20T02:45:02.223Z,68.95
2019-01-20T02:47:32.356Z,69.37
2019-01-20T02:50:02.477Z,68.51
2019-01-20T02:52:32.642Z,67.75
2019-01-20T02:55:03.225Z,68.09
2019-01-20T02:57:34.395Z,68.32
2019-01-20T03:00:06.222Z,68.31
2019-01-20T03:02:36.424Z,68.86
2019-01-20T03:05:08.219Z,69.32
2019-01-20T03:07:39.376Z,69.79
2019-01-20T03:10:11.306Z,69.24
2019-01-20T03:12:42.340Z,68.38
2019-01-20T03:15:12.719Z,68.48
2019-01-20T03:17:43.694Z,67.35
2019-01-20T03:20:16.542Z,66.72
2019-01-20T03:22:47.038Z,66.45
2019-01-20T03:25:17.762Z,65.98
2019-01-20T03:27:48.341Z,66.22
2019-01-20T03:30:23.213Z,64.51
2019-01-20T03:32:53.676Z,63.58
2019-01-20T03:35:25.783Z,65.15
2019-01-20T03:37:55.908Z,65.98
2019-01-20T03:40:26.014Z,65.21
2019-01-20T03:42:56.827Z,65.47
2019-01-20T03:45:28.073Z,66.16
2019-01-20T03:47:58.190Z,66.05
2019-01-20T03:50:28.554Z,66.64
2019-01-20T03:52:58.676Z,65.06
2019-01-20T03:55:28.800Z,66.49
2019-01-20T03:57:58.916Z,68.28
2019-01-20T04:00:29.034Z,67.36
2019-01-20T04:03:05.677Z,68.00
2019-01-20T04:05:35.789Z,67.84
2019-01-20T04:08:06.086Z,68.99
2019-01-20T04:10:36.201Z,67.81
2019-01-20T04:13:06.421Z,68.12
2019-01-20T04:15:36.793Z,68.46
2019-01-20T04:18:07.098Z,68.88
2019-01-20T04:20:37.216Z,69.12
2019-01-20T04:23:07.936Z,69.26
2019-01-20T04:25:38.993Z,69.09
2019-01-20T04:28:09.084Z,70.25
2019-01-20T04:30:39.223Z,70.40
2019-01-20T04:33:09.323Z,69.89
2019-01-20T04:35:39.434Z,71.29
2019-01-20T04:38:09.544Z,70.47
2019-01-20T04:40:39.652Z,71.40
2019-01-20T04:43:09.738Z,71.13
2019-01-20T04:45:39.850Z,70.49
2019-01-20T04:48:09.935Z,70.87
2019-01-20T04:50:40.046Z,71.17
2019-01-20T04:53:10.147Z,71.14
2019-01-20T04:55:40.347Z,71.70
2019-01-20T04:58:10.827Z,70.68
2019-01-20T05:00:40.951Z,71.82
2019-01-20T05:03:11.126Z,72.11
2019-01-20T05:05:41.205Z,71.90
2019-01-20T05:08:11.331Z,72.32
2019-01-20T05:10:41.492Z,73.04
2019-01-20T05:13:11.596Z,72.82
2019-01-20T05:15:41.691Z,73.19
2019-01-20T05:18:11.804Z,73.36
2019-01-20T05:20:41.964Z,73.42
2019-01-20T05:23:12.078Z,73.21
2019-01-20T05:25:42.202Z,72.73
2019-01-20T05:28:12.305Z,73.91
2019-01-20T05:30:42.412Z,72.82
2019-01-20T05:33:12.511Z,71.38
2019-01-20T05:35:42.641Z,72.50
2019-01-20T05:38:12.755Z,71.67
2019-01-20T05:40:42.874Z,72.13
2019-01-20T05:43:12.982Z,70.23
2019-01-20T05:45:43.233Z,71.50
2019-01-20T05:48:13.339Z,71.89
2019-01-20T05:50:43.502Z,71.32
2019-01-20T05:53:13.631Z,72.07
2019-01-20T05:55:44.131Z,71.84
2019-01-20T05:58:14.233Z,71.55
2019-01-20T06:00:44.402Z,72.02
2019-01-20T06:03:14.527Z,72.12
2019-01-20T06:05:44.731Z,72.31
2019-01-20T06:08:17.169Z,71.26
2019-01-20T06:10:47.286Z,71.41
2019-01-20T06:13:17.395Z,71.15
2019-01-20T06:15:47.505Z,70.97
2019-01-20T06:18:17.611Z,67.75
2019-01-20T06:20:47.729Z,69.47
2019-01-20T06:23:17.847Z,70.38
2019-01-20T06:25:48.037Z,70.29
2019-01-20T06:28:19.118Z,69.97
2019-01-20T06:30:49.243Z,69.86
2019-01-20T06:33:19.372Z,70.25
2019-01-20T06:35:49.929Z,70.17
2019-01-20T06:38:20.051Z,69.53
2019-01-20T06:40:50.174Z,69.83
2019-01-20T06:43:20.269Z,69.98
2019-01-20T06:45:50.410Z,70.24
2019-01-20T06:48:20.517Z,70.04
2019-01-20T06:50:50.653Z,69.92
2019-01-20T06:53:20.757Z,69.39
2019-01-20T06:55:50.881Z,71.40
2019-01-20T06:58:20.989Z,70.88
2019-01-20T07:00:51.106Z,71.30
2019-01-20T07:03:21.553Z,71.69
2019-01-20T07:05:51.659Z,71.71
2019-01-20T07:08:21.762Z,71.66
2019-01-20T07:10:51.885Z,72.64
2019-01-20T07:13:22.084Z,72.00
2019-01-20T07:15:52.187Z,72.55
2019-01-20T07:18:22.311Z,72.22
2019-01-20T07:20:52.431Z,71.27
2019-01-20T07:23:22.532Z,72.38
2019-01-20T07:25:52.952Z,71.67
2019-01-20T07:28:23.046Z,72.21
2019-01-20T07:30:53.163Z,72.13
2019-01-20T07:33:23.258Z,72.18
2019-01-20T07:35:54.115Z,71.65
2019-01-20T07:38:24.230Z,71.84
2019-01-20T07:40:54.353Z,72.08
2019-01-20T07:43:24.493Z,72.53
2019-01-20T07:45:54.604Z,72.19
2019-01-20T07:48:24.700Z,72.41
2019-01-20T07:50:54.841Z,72.41
2019-01-20T07:53:24.975Z,73.19
2019-01-20T07:55:55.163Z,73.09
2019-01-20T07:58:25.297Z,73.03
2019-01-20T08:00:55.417Z,71.79
2019-01-20T08:03:25.535Z,71.93
2019-01-20T08:05:55.699Z,72.00
2019-01-20T08:08:25.803Z,71.17
2019-01-20T08:10:55.913Z,72.22
2019-01-20T08:13:26.032Z,71.93
2019-01-20T08:15:56.176Z,71.72
2019-01-20T08:18:26.294Z,72.28
2019-01-20T08:20:56.428Z,71.39
2019-01-20T08:23:26.578Z,70.96
2019-01-20T08:25:56.669Z,71.74
2019-01-20T08:28:26.774Z,71.26
2019-01-20T08:30:56.893Z,71.32
2019-01-20T08:33:27.006Z,71.35
2019-01-20T08:35:57.112Z,70.48
2019-01-20T08:38:27.227Z,70.60
2019-01-20T08:40:57.451Z,69.70
2019-01-20T08:43:32.074Z,70.58
2019-01-20T08:46:45.269Z,69.21
2019-01-20T08:49:15.400Z,70.66
2019-01-20T08:51:45.539Z,69.94
2019-01-20T08:54:15.636Z,69.99
2019-01-20T08:56:45.776Z,69.85
2019-01-20T08:59:15.881Z,69.40
2019-01-20T09:01:45.983Z,70.21
2019-01-20T09:04:16.284Z,70.08
2019-01-20T09:06:46.413Z,69.62
2019-01-20T09:09:16.516Z,71.29
2019-01-20T09:11:46.666Z,70.54
2019-01-20T09:14:16.823Z,70.56
2019-01-20T09:16:46.957Z,69.83
2019-01-20T09:19:17.214Z,69.60
2019-01-20T09:21:47.814Z,70.11
2019-01-20T09:24:20.965Z,69.98
2019-01-20T09:26:51.447Z,69.41
2019-01-20T09:29:21.610Z,69.56
2019-01-20T09:31:51.793Z,69.14
2019-01-20T09:34:21.903Z,68.89
2019-01-20T09:36:53.110Z,70.35
2019-01-20T09:39:23.530Z,71.59
2019-01-20T09:41:53.669Z,70.43
2019-01-20T09:44:23.763Z,70.88
2019-01-20T09:46:53.880Z,71.10
2019-01-20T09:49:23.975Z,69.70
2019-01-20T09:51:54.096Z,70.60
2019-01-20T09:54:24.195Z,69.90
2019-01-20T09:56:54.308Z,69.78
2019-01-20T09:59:24.412Z,70.47
2019-01-20T10:01:54.794Z,70.73
2019-01-20T10:04:24.884Z,69.73
2019-01-20T10:06:55.015Z,69.69
2019-01-20T10:09:25.248Z,68.21
2019-01-20T10:11:55.378Z,68.77
2019-01-20T10:14:25.502Z,68.82
2019-01-20T10:16:55.629Z,69.68
2019-01-20T10:19:25.843Z,68.20
2019-01-20T10:21:55.970Z,66.65
2019-01-20T10:24:26.086Z,67.20
2019-01-20T10:26:56.227Z,67.28
2019-01-20T10:29:26.301Z,67.37
2019-01-20T10:31:56.431Z,67.75
2019-01-20T10:34:27.692Z,67.67
2019-01-20T10:36:59.319Z,67.45
2019-01-20T10:39:29.425Z,66.84
2019-01-20T10:41:59.567Z,66.75
2019-01-20T10:44:29.707Z,66.05
2019-01-20T10:46:59.945Z,65.29
2019-01-20T10:49:30.045Z,66.14
2019-01-20T10:52:00.169Z,66.77
2019-01-20T10:54:30.276Z,67.12
2019-01-20T10:57:00.409Z,67.25
2019-01-20T10:59:30.559Z,66.67
2019-01-20T11:02:02.383Z,66.73
2019-01-20T11:04:33.760Z,66.61
2019-01-20T11:07:04.197Z,64.52
2019-01-20T11:09:34.305Z,65.78
2019-01-20T11:12:04.633Z,65.16
2019-01-20T11:14:34.739Z,65.17
2019-01-20T11:17:04.855Z,64.93
2019-01-20T11:19:34.952Z,65.13
2019-01-20T11:22:05.302Z,65.13
2019-01-20T11:24:35.396Z,65.06
2019-01-20T11:27:05.882Z,64.24
2019-01-20T11:29:35.995Z,64.50
2019-01-20T11:32:06.135Z,64.72
2019-01-20T11:34:36.239Z,63.69
2019-01-20T11:37:06.340Z,64.22
2019-01-20T11:39:36.448Z,63.80
2019-01-20T11:42:06.582Z,61.90
2019-01-20T11:44:36.677Z,62.82
2019-01-20T11:47:07.066Z,63.43
2019-01-20T11:49:37.181Z,63.51
2019-01-20T11:52:07.415Z,63.26
2019-01-20T11:54:37.524Z,63.22
2019-01-20T11:57:07.663Z,63.31
2019-01-20T11:59:38.622Z,63.83
2019-01-20T12:02:08.829Z,64.06
2019-01-20T12:04:38.934Z,62.45
2019-01-20T12:07:09.062Z,63.57
2019-01-20T12:09:39.149Z,63.95
2019-01-20T12:12:09.978Z,63.89
2019-01-20T12:14:40.198Z,64.08
2019-01-20T12:17:10.329Z,64.11
2019-01-20T12:19:40.446Z,65.31
2019-01-20T12:22:10.569Z,65.02
2019-01-20T12:24:40.672Z,65.32
2019-01-20T12:27:10.841Z,64.67
2019-01-20T12:29:40.951Z,64.70
2019-01-20T12:32:11.100Z,65.17
2019-01-20T12:34:41.441Z,65.75
2019-01-20T12:37:11.548Z,65.47
2019-01-20T12:39:41.665Z,65.77
2019-01-20T12:42:11.807Z,65.75
2019-01-20T12:44:42.012Z,65.95
2019-01-20T12:47:12.133Z,65.50
2019-01-20T12:49:42.385Z,65.49
2019-01-20T12:52:12.662Z,66.37
2019-01-20T12:54:42.922Z,66.63
2019-01-20T12:57:13.148Z,66.08
2019-01-20T12:59:43.249Z,66.27
2019-01-20T13:02:13.400Z,66.65
2019-01-20T13:04:43.522Z,66.22
2019-01-20T13:07:13.633Z,66.42
2019-01-20T13:09:44.966Z,66.88
2019-01-20T13:12:15.117Z,66.83
2019-01-20T13:14:45.212Z,66.44
2019-01-20T13:17:15.324Z,66.56
2019-01-20T13:19:45.429Z,67.41
2019-01-20T13:22:15.564Z,67.32
2019-01-20T13:24:45.668Z,66.64
2019-01-20T13:27:15.778Z,67.26
2019-01-20T13:29:45.865Z,67.58
2019-01-20T13:32:15.988Z,67.78
2019-01-20T13:34:46.107Z,67.90
2019-01-20T13:37:16.221Z,67.97
2019-01-20T13:39:47.454Z,67.78
2019-01-20T13:42:17.590Z,68.02
2019-01-20T13:44:47.762Z,68.01
2019-01-20T13:47:17.865Z,68.12
2019-01-20T13:49:47.974Z,68.44
2019-01-20T13:52:18.076Z,68.25
2019-01-20T13:54:48.191Z,68.68
2019-01-20T13:57:18.307Z,69.45
2019-01-20T13:59:48.403Z,69.51
2019-01-20T14:02:19.335Z,69.39
2019-01-20T14:04:49.447Z,69.46
2019-01-20T14:07:19.572Z,69.57
2019-01-20T14:09:49.667Z,69.63
2019-01-20T14:12:19.778Z,69.74
2019-01-20T14:14:53.891Z,69.87
2019-01-20T14:17:21.714Z,70.01
2019-01-20T14:19:51.818Z,70.10
2019-01-20T14:22:21.915Z,70.16
2019-01-20T14:24:53.140Z,69.83
2019-01-20T14:27:23.259Z,69.69
2019-01-20T14:29:53.374Z,69.94
2019-01-20T14:32:23.508Z,69.90
2019-01-20T14:34:53.635Z,70.30
2019-01-20T14:37:23.758Z,70.71
2019-01-20T14:39:53.926Z,70.65
2019-01-20T14:42:24.074Z,70.57
2019-01-20T14:45:00.888Z,70.55
2019-01-20T14:47:26.195Z,70.65
2019-01-20T14:49:56.573Z,70.78
2019-01-20T14:52:26.682Z,70.74
2019-01-20T14:54:56.802Z,70.70
2019-01-20T14:57:26.911Z,70.19
2019-01-20T14:59:58.574Z,67.95
2019-01-20T15:02:29.207Z,68.69
2019-01-20T15:04:59.472Z,69.84
2019-01-20T15:07:29.578Z,70.76
2019-01-20T15:10:00.235Z,71.56
2019-01-20T15:12:30.436Z,72.02
2019-01-20T15:15:00.655Z,72.43
2019-01-20T15:17:30.933Z,72.38
2019-01-20T15:20:02.971Z,72.44
2019-01-20T15:22:33.108Z,72.57
2019-01-20T15:25:03.220Z,72.63
2019-01-20T15:27:33.430Z,72.59
2019-01-20T15:30:03.747Z,72.58
2019-01-20T15:32:33.978Z,72.57
2019-01-20T15:35:04.163Z,72.73
2019-01-20T15:37:35.892Z,72.52
2019-01-20T15:40:07.563Z,72.60
2019-01-20T15:42:37.890Z,72.62
2019-01-20T15:45:16.338Z,72.62
2019-01-20T15:47:43.069Z,72.65
2019-01-20T15:50:16.225Z,72.63
2019-01-20T15:52:47.698Z,72.78
2019-01-20T15:55:17.827Z,73.16
2019-01-20T15:57:47.973Z,73.31
2019-01-20T16:00:23.263Z,73.35
2019-01-20T16:02:53.698Z,73.69
2019-01-20T16:05:26.070Z,74.00
2019-01-20T16:07:56.234Z,73.92
2019-01-20T16:10:26.392Z,74.24
2019-01-20T16:12:56.979Z,74.23
2019-01-20T16:15:36.365Z,74.51
2019-01-20T16:18:06.807Z,74.86
2019-01-20T16:20:36.905Z,74.58
2019-01-20T16:23:08.713Z,74.74
2019-01-20T16:25:40.775Z,75.24
2019-01-20T16:28:11.969Z,75.32
2019-01-20T16:30:43.716Z,75.45
2019-01-20T16:33:13.853Z,75.48
2019-01-20T16:35:44.045Z,75.34
2019-01-20T16:38:14.199Z,75.04
2019-01-20T16:40:44.305Z,75.08
2019-01-20T16:43:14.481Z,75.56
2019-01-20T16:45:46.396Z,76.23
2019-01-20T16:48:16.618Z,76.52
2019-01-20T16:50:46.771Z,76.55
2019-01-20T16:53:17.161Z,76.46
2019-01-20T16:55:47.307Z,75.74
2019-01-20T16:58:17.442Z,75.91
2019-01-20T17:00:47.895Z,75.79
2019-01-20T17:03:19.726Z,75.77
2019-01-20T17:05:50.152Z,75.69
2019-01-20T17:08:20.270Z,75.66
2019-01-20T17:10:51.693Z,76.19
2019-01-20T17:13:21.847Z,76.74
2019-01-20T17:15:51.973Z,77.05
2019-01-20T17:18:22.627Z,77.21
2019-01-20T17:20:52.737Z,76.87
2019-01-20T17:23:22.861Z,76.21
2019-01-20T17:25:52.970Z,75.62
2019-01-20T17:28:23.101Z,75.46
2019-01-20T17:30:53.248Z,75.98
2019-01-20T17:33:23.391Z,76.33
2019-01-20T17:35:53.504Z,76.88
2019-01-20T17:38:23.626Z,76.09
2019-01-20T17:40:53.728Z,76.71
2019-01-20T17:43:23.850Z,76.76
2019-01-20T17:45:53.984Z,76.58
2019-01-20T17:48:24.097Z,75.98
2019-01-20T17:50:54.257Z,76.27
2019-01-20T17:53:24.405Z,75.88
2019-01-20T17:55:54.519Z,75.55
2019-01-20T17:58:24.793Z,76.70
2019-01-20T18:00:58.566Z,77.18
2019-01-20T18:03:28.882Z,77.89
2019-01-20T18:05:59.101Z,77.85
2019-01-20T18:08:29.245Z,77.38
2019-01-20T18:10:59.347Z,76.72
2019-01-20T18:13:30.157Z,76.76
2019-01-20T18:16:00.322Z,76.22
2019-01-20T18:18:30.840Z,77.29
2019-01-20T18:21:01.124Z,77.78
2019-01-20T18:23:31.267Z,77.96
2019-01-20T18:26:01.424Z,77.96
2019-01-20T18:28:31.575Z,77.24
2019-01-20T18:31:01.774Z,77.89
2019-01-20T18:33:32.304Z,77.74
2019-01-20T18:36:02.474Z,77.61
2019-01-20T18:38:32.610Z,77.48
2019-01-20T18:41:02.709Z,78.02
2019-01-20T18:43:32.877Z,77.67
2019-01-20T18:46:03.017Z,77.61
2019-01-20T18:48:33.158Z,78.11
2019-01-20T18:51:03.463Z,78.40
2019-01-20T18:53:33.535Z,78.13
2019-01-20T18:56:03.650Z,77.91
2019-01-20T18:58:33.769Z,77.86
2019-01-20T19:01:04.150Z,77.92
2019-01-20T19:03:34.573Z,77.84
2019-01-20T19:06:04.684Z,77.26
2019-01-20T19:08:34.818Z,77.39
2019-01-20T19:11:05.043Z,77.79
2019-01-20T19:13:35.241Z,77.86
2019-01-20T19:16:08.987Z,78.09
2019-01-20T19:18:38.415Z,78.34
2019-01-20T19:21:08.549Z,78.29
2019-01-20T19:23:38.777Z,77.91
2019-01-20T19:26:09.178Z,78.06
2019-01-20T19:28:39.429Z,78.34
2019-01-20T19:31:10.538Z,79.09
2019-01-20T19:33:42.041Z,79.56
2019-01-20T19:36:13.603Z,79.21
2019-01-20T19:38:45.813Z,77.31
2019-01-20T19:41:16.919Z,77.49
2019-01-20T19:43:48.137Z,78.19
2019-01-20T19:46:19.294Z,77.55
2019-01-20T19:48:50.612Z,78.68
2019-01-20T19:51:22.471Z,78.68
2019-01-20T19:53:53.909Z,77.07
2019-01-20T19:56:25.211Z,77.18
2019-01-20T19:58:55.433Z,77.92
2019-01-20T20:01:30.731Z,78.42
2019-01-20T20:03:57.382Z,78.66
2019-01-20T20:06:27.611Z,79.03
2019-01-20T20:08:58.716Z,79.32
2019-01-20T20:11:28.959Z,79.38
2019-01-20T20:13:59.126Z,78.96
2019-01-20T20:16:29.249Z,78.74
2019-01-20T20:18:59.364Z,78.85
2019-01-20T20:21:29.487Z,77.92
2019-01-20T20:23:59.630Z,78.49
2019-01-20T20:26:29.770Z,77.38
2019-01-20T20:28:59.932Z,77.35
2019-01-20T20:31:30.062Z,77.50
2019-01-20T20:34:00.237Z,77.91
2019-01-20T20:36:30.358Z,78.16
2019-01-20T20:39:00.496Z,77.96
2019-01-20T20:41:30.700Z,77.75
2019-01-20T20:44:00.851Z,77.63
2019-01-20T20:46:31.205Z,77.73
2019-01-20T20:49:01.483Z,77.65
2019-01-20T20:51:31.631Z,77.68
2019-01-20T20:54:01.829Z,77.98
2019-01-20T20:56:32.023Z,78.37
2019-01-20T20:59:02.180Z,78.55
2019-01-20T21:01:32.300Z,78.85
2019-01-20T21:04:02.497Z,78.96
2019-01-20T21:06:32.767Z,78.96
2019-01-20T21:09:03.423Z,78.75
2019-01-20T21:11:33.553Z,78.98
2019-01-20T21:14:03.794Z,79.36
2019-01-20T21:16:37.816Z,78.43
2019-01-20T21:19:05.727Z,78.34
2019-01-20T21:21:35.837Z,78.01
2019-01-20T21:24:06.022Z,77.86
2019-01-20T21:26:36.150Z,76.69
2019-01-20T21:29:06.279Z,77.72
2019-01-20T21:31:36.401Z,77.78
2019-01-20T21:34:06.520Z,76.96
2019-01-20T21:36:36.657Z,77.39
2019-01-20T21:39:09.063Z,77.68
2019-01-20T21:41:39.228Z,77.80
2019-01-20T21:44:09.360Z,78.51
2019-01-20T21:46:45.257Z,78.48
2019-01-20T21:49:11.250Z,78.58
2019-01-20T21:51:41.355Z,78.78
2019-01-20T21:54:11.465Z,78.52
2019-01-20T21:56:41.570Z,78.62
2019-01-20T21:59:11.697Z,78.62
2019-01-20T22:01:41.928Z,78.46
2019-01-20T22:04:12.048Z,78.32
2019-01-20T22:06:42.139Z,78.33
2019-01-20T22:09:12.254Z,77.53
2019-01-20T22:11:42.440Z,77.84
2019-01-20T22:14:12.573Z,77.81
2019-01-20T22:16:42.680Z,77.71
2019-01-20T22:19:12.827Z,77.93
2019-01-20T22:21:42.947Z,77.67
2019-01-20T22:24:13.052Z,77.72
2019-01-20T22:26:43.161Z,77.78
2019-01-20T22:29:13.277Z,77.59
2019-01-20T22:31:43.386Z,77.51
2019-01-20T22:34:13.497Z,77.55
2019-01-20T22:36:43.607Z,77.27
2019-01-20T22:39:13.733Z,77.48
2019-01-20T22:41:43.909Z,77.49
2019-01-20T22:44:14.023Z,77.45
2019-01-20T22:46:44.131Z,77.21
2019-01-20T22:49:14.245Z,76.98
2019-01-20T22:51:44.348Z,77.06
2019-01-20T22:54:14.469Z,76.62
2019-01-20T22:56:44.583Z,76.42
2019-01-20T22:59:14.695Z,76.17
2019-01-20T23:01:44.896Z,76.08
2019-01-20T23:04:15.049Z,76.02
2019-01-20T23:06:45.180Z,76.02
2019-01-20T23:09:15.293Z,76.12
2019-01-20T23:11:45.403Z,76.09
2019-01-20T23:14:15.590Z,76.07
2019-01-20T23:16:45.691Z,75.94
2019-01-20T23:19:17.028Z,75.92
2019-01-20T23:21:47.458Z,75.96
2019-01-20T23:24:17.992Z,75.89
2019-01-20T23:26:48.451Z,75.84
2019-01-20T23:29:19.050Z,76.05
2019-01-20T23:31:49.478Z,75.99
2019-01-20T23:34:19.923Z,76.01
2019-01-20T23:36:50.317Z,76.16
2019-01-20T23:39:20.719Z,76.38
2019-01-20T23:41:51.231Z,76.39
2019-01-20T23:44:21.782Z,76.65
2019-01-20T23:46:52.238Z,76.84
2019-01-20T23:49:22.654Z,76.82
2019-01-20T23:51:53.150Z,76.79
2019-01-20T23:54:23.616Z,76.62
2019-01-20T23:56:54.077Z,76.65
2019-01-20T23:59:24.572Z,76.68
